createdAt,value
2023-04-10T00:00:39.335Z,8.21
2023-04-10T00:01:40.938Z,8.27
2023-04-10T00:02:42.857Z,8.30
2023-04-10T00:03:44.774Z,8.36
2023-04-10T00:04:46.839Z,8.41
2023-04-10T00:05:48.434Z,8.46
2023-04-10T00:06:50.047Z,8.51
2023-04-10T00:07:51.687Z,8.57
2023-04-10T00:08:53.212Z,8.60
2023-04-10T00:09:55.033Z,8.65
2023-04-10T00:10:57.100Z,8.65
2023-04-10T00:11:59.485Z,8.66
2023-04-10T00:13:03.437Z,8.64
2023-04-10T00:14:04.971Z,8.64
2023-04-10T00:15:07.194Z,8.64
2023-04-10T00:16:08.899Z,8.61
2023-04-10T00:17:10.709Z,8.61
2023-04-10T00:18:12.739Z,8.64
2023-04-10T00:19:14.349Z,8.68
2023-04-10T00:20:16.299Z,8.72
2023-04-10T00:21:18.049Z,8.66
2023-04-10T00:22:19.578Z,8.65
2023-04-10T00:23:21.327Z,8.62
2023-04-10T00:24:22.876Z,8.57
2023-04-10T00:25:24.465Z,8.57
2023-04-10T00:26:26.903Z,8.59
2023-04-10T00:27:28.448Z,8.56
2023-04-10T00:28:30.280Z,8.53
2023-04-10T00:29:31.825Z,8.58
2023-04-10T00:30:33.414Z,8.64
2023-04-10T00:31:35.030Z,8.64
2023-04-10T00:32:36.716Z,8.68
2023-04-10T00:33:38.309Z,8.74
2023-04-10T00:34:39.854Z,8.78
2023-04-10T00:35:41.431Z,8.80
2023-04-10T00:36:43.048Z,8.73
2023-04-10T00:37:44.638Z,8.62
2023-04-10T00:38:46.613Z,8.42
2023-04-10T00:39:48.184Z,8.10
2023-04-10T00:40:49.829Z,7.92
2023-04-10T00:41:51.325Z,7.89
2023-04-10T00:42:53.144Z,7.95
2023-04-10T00:43:57.921Z,8.01
2023-04-10T00:45:00.288Z,8.00
2023-04-10T00:46:01.899Z,8.07
2023-04-10T00:47:07.612Z,8.16
2023-04-10T00:48:09.210Z,8.26
2023-04-10T00:49:10.886Z,8.35
2023-04-10T00:50:12.710Z,8.40
2023-04-10T00:51:14.533Z,8.45
2023-04-10T00:52:16.616Z,8.42
2023-04-10T00:53:18.219Z,8.41
2023-04-10T00:54:20.251Z,8.37
2023-04-10T00:55:21.864Z,8.44
2023-04-10T00:56:24.946Z,8.51
2023-04-10T00:57:27.115Z,8.57
2023-04-10T00:58:28.747Z,8.57
2023-04-10T00:59:31.590Z,8.45
2023-04-10T01:00:33.167Z,8.35
2023-04-10T01:01:34.784Z,8.41
2023-04-10T01:02:36.619Z,8.45
2023-04-10T01:03:40.137Z,8.54
2023-04-10T01:04:42.219Z,8.55
2023-04-10T01:05:52.315Z,8.57
2023-04-10T01:06:59.305Z,8.57
2023-04-10T01:08:13.538Z,8.57
2023-04-10T01:09:32.796Z,8.47
2023-04-10T01:10:42.862Z,8.46
2023-04-10T01:11:50.597Z,8.47
2023-04-10T01:12:56.145Z,8.43
2023-04-10T01:14:19.390Z,8.36
2023-04-10T01:15:23.659Z,8.20
2023-04-10T01:16:33.720Z,8.11
2023-04-10T01:17:54.851Z,8.10
2023-04-10T01:19:31.266Z,8.01
2023-04-10T01:20:37.562Z,7.91
2023-04-10T01:21:41.548Z,7.83
2023-04-10T01:23:04.550Z,7.75
2023-04-10T01:24:06.249Z,7.69
2023-04-10T01:25:10.823Z,7.61
2023-04-10T01:26:17.346Z,7.48
2023-04-10T01:27:44.282Z,7.41
2023-04-10T01:28:56.942Z,7.33
2023-04-10T01:30:01.539Z,7.36
2023-04-10T01:31:06.611Z,7.41
2023-04-10T01:32:18.852Z,7.50
2023-04-10T01:33:22.750Z,7.56
2023-04-10T01:34:32.561Z,7.64
2023-04-10T01:35:35.860Z,7.68
2023-04-10T01:36:45.628Z,7.70
2023-04-10T01:37:50.641Z,7.61
2023-04-10T01:38:54.926Z,7.53
2023-04-10T01:40:02.856Z,7.52
2023-04-10T01:41:06.301Z,7.52
2023-04-10T01:42:10.758Z,7.53
2023-04-10T01:43:13.139Z,7.46
2023-04-10T01:44:16.062Z,7.39
2023-04-10T01:45:22.004Z,7.27
2023-04-10T01:46:25.189Z,7.26
2023-04-10T01:47:28.015Z,7.32
2023-04-10T01:48:30.212Z,7.37
2023-04-10T01:49:33.006Z,7.34
2023-04-10T01:50:36.014Z,7.34
2023-04-10T01:51:37.777Z,7.31
2023-04-10T01:52:40.614Z,7.26
2023-04-10T01:53:44.709Z,7.26
2023-04-10T01:54:48.527Z,7.27
2023-04-10T01:55:52.325Z,7.19
2023-04-10T01:56:54.016Z,7.17
2023-04-10T01:57:56.508Z,7.18
2023-04-10T01:58:58.468Z,7.29
2023-04-10T02:00:00.069Z,7.36
2023-04-10T02:01:01.944Z,7.36
2023-04-10T02:02:04.852Z,7.28
2023-04-10T02:03:06.796Z,7.24
2023-04-10T02:04:08.673Z,7.18
2023-04-10T02:05:11.033Z,7.17
2023-04-10T02:06:27.975Z,7.13
2023-04-10T02:07:42.736Z,7.14
2023-04-10T02:08:55.595Z,7.15
2023-04-10T02:10:07.412Z,7.17
2023-04-10T02:11:15.492Z,7.15
2023-04-10T02:12:22.722Z,7.18
2023-04-10T02:13:27.837Z,7.20
2023-04-10T02:14:32.315Z,7.15
2023-04-10T02:15:35.689Z,7.16
2023-04-10T02:16:39.156Z,7.17
2023-04-10T02:17:40.952Z,7.18
2023-04-10T02:18:43.590Z,7.20
2023-04-10T02:19:48.387Z,7.22
2023-04-10T02:20:50.550Z,7.17
2023-04-10T02:21:52.297Z,7.15
2023-04-10T02:22:54.408Z,7.12
2023-04-10T02:23:59.620Z,7.12
2023-04-10T02:25:04.640Z,7.10
2023-04-10T02:26:09.986Z,7.07
2023-04-10T02:27:11.564Z,7.06
2023-04-10T02:28:13.111Z,7.11
2023-04-10T02:29:15.080Z,7.01
2023-04-10T02:30:16.656Z,6.97
2023-04-10T02:31:18.344Z,6.97
2023-04-10T02:32:20.113Z,6.95
2023-04-10T02:33:21.686Z,6.92
2023-04-10T02:34:23.226Z,6.89
2023-04-10T02:35:24.967Z,6.89
2023-04-10T02:36:26.484Z,6.89
2023-04-10T02:37:27.978Z,6.89
2023-04-10T02:38:29.512Z,6.87
2023-04-10T02:39:31.026Z,6.83
2023-04-10T02:40:32.710Z,6.88
2023-04-10T02:41:34.248Z,7.04
2023-04-10T02:42:35.883Z,7.13
2023-04-10T02:43:37.453Z,7.22
2023-04-10T02:44:39.676Z,7.31
2023-04-10T02:45:41.900Z,7.37
2023-04-10T02:46:43.590Z,7.38
2023-04-10T02:47:45.221Z,7.24
2023-04-10T02:48:47.654Z,7.16
2023-04-10T02:49:49.170Z,7.22
2023-04-10T02:50:56.579Z,7.30
2023-04-10T02:51:58.188Z,7.35
2023-04-10T02:52:59.780Z,7.42
2023-04-10T02:54:01.283Z,7.47
2023-04-10T02:55:02.835Z,7.52
2023-04-10T02:56:06.659Z,7.59
2023-04-10T02:57:08.403Z,7.58
2023-04-10T02:58:09.943Z,7.62
2023-04-10T02:59:13.344Z,7.61
2023-04-10T03:00:15.673Z,7.60
2023-04-10T03:01:17.313Z,7.58
2023-04-10T03:02:18.958Z,7.54
2023-04-10T03:03:20.777Z,7.53
2023-04-10T03:04:22.697Z,7.50
2023-04-10T03:05:24.303Z,7.49
2023-04-10T03:06:28.657Z,7.48
2023-04-10T03:07:30.219Z,7.51
2023-04-10T03:08:31.785Z,7.52
2023-04-10T03:09:33.294Z,7.54
2023-04-10T03:10:34.858Z,7.59
2023-04-10T03:11:36.441Z,7.61
2023-04-10T03:12:38.022Z,7.56
2023-04-10T03:13:39.554Z,7.57
2023-04-10T03:14:41.467Z,7.54
2023-04-10T03:15:43.587Z,7.46
2023-04-10T03:16:45.347Z,7.35
2023-04-10T03:17:47.513Z,7.34
2023-04-10T03:18:49.088Z,7.38
2023-04-10T03:19:50.692Z,7.45
2023-04-10T03:20:52.253Z,7.50
2023-04-10T03:21:53.889Z,7.47
2023-04-10T03:22:55.722Z,7.45
2023-04-10T03:23:57.347Z,7.45
2023-04-10T03:24:59.064Z,7.37
2023-04-10T03:26:00.793Z,7.34
2023-04-10T03:27:02.352Z,7.35
2023-04-10T03:28:03.973Z,7.40
2023-04-10T03:29:05.484Z,7.48
2023-04-10T03:30:07.863Z,7.53
2023-04-10T03:31:10.721Z,7.58
2023-04-10T03:32:12.334Z,7.62
2023-04-10T03:33:14.106Z,7.67
2023-04-10T03:34:15.712Z,7.75
2023-04-10T03:35:17.260Z,7.83
2023-04-10T03:36:18.940Z,7.79
2023-04-10T03:37:20.642Z,7.72
2023-04-10T03:38:22.148Z,7.79
2023-04-10T03:39:24.738Z,7.82
2023-04-10T03:40:26.355Z,7.86
2023-04-10T03:41:27.920Z,7.90
2023-04-10T03:42:29.619Z,7.89
2023-04-10T03:43:31.571Z,7.90
2023-04-10T03:44:34.260Z,7.85
2023-04-10T03:45:35.884Z,7.87
2023-04-10T03:46:37.463Z,7.88
2023-04-10T03:47:39.075Z,7.89
2023-04-10T03:48:41.341Z,7.93
2023-04-10T03:49:42.899Z,7.91
2023-04-10T03:50:44.582Z,7.92
2023-04-10T03:51:46.317Z,7.89
2023-04-10T03:52:49.795Z,7.88
2023-04-10T03:53:51.539Z,7.87
2023-04-10T03:54:53.354Z,7.87
2023-04-10T03:55:54.994Z,7.80
2023-04-10T03:56:57.189Z,7.72
2023-04-10T03:57:58.715Z,7.69
2023-04-10T03:59:00.251Z,7.70
2023-04-10T04:00:02.798Z,7.75
2023-04-10T04:01:05.452Z,7.80
2023-04-10T04:02:07.762Z,7.83
2023-04-10T04:03:09.776Z,7.83
2023-04-10T04:04:11.583Z,7.81
2023-04-10T04:05:13.409Z,7.81
2023-04-10T04:06:14.963Z,7.81
2023-04-10T04:07:16.515Z,7.69
2023-04-10T04:08:18.283Z,7.60
2023-04-10T04:09:19.840Z,7.62
2023-04-10T04:10:21.372Z,7.56
2023-04-10T04:11:22.940Z,7.32
2023-04-10T04:12:24.470Z,7.11
2023-04-10T04:13:26.006Z,7.05
2023-04-10T04:14:27.571Z,7.12
2023-04-10T04:15:29.117Z,7.22
2023-04-10T04:16:30.768Z,7.34
2023-04-10T04:17:32.586Z,7.34
2023-04-10T04:18:34.159Z,7.33
2023-04-10T04:19:35.847Z,7.36
2023-04-10T04:20:37.382Z,7.37
2023-04-10T04:21:38.922Z,7.36
2023-04-10T04:22:41.545Z,7.39
2023-04-10T04:23:43.138Z,7.41
2023-04-10T04:24:44.723Z,7.39
2023-04-10T04:25:46.272Z,7.42
2023-04-10T04:26:47.808Z,7.42
2023-04-10T04:27:49.339Z,7.46
2023-04-10T04:28:51.131Z,7.46
2023-04-10T04:29:52.673Z,7.38
2023-04-10T04:30:54.176Z,7.43
2023-04-10T04:31:55.885Z,7.52
2023-04-10T04:32:57.448Z,7.59
2023-04-10T04:33:59.995Z,7.63
2023-04-10T04:35:01.574Z,7.67
2023-04-10T04:36:03.248Z,7.73
2023-04-10T04:37:05.609Z,7.74
2023-04-10T04:38:07.157Z,7.76
2023-04-10T04:39:08.683Z,7.69
2023-04-10T04:40:10.800Z,7.63
2023-04-10T04:41:12.438Z,7.62
2023-04-10T04:42:13.996Z,7.64
2023-04-10T04:43:15.733Z,7.66
2023-04-10T04:44:19.683Z,7.69
2023-04-10T04:45:21.957Z,7.78
2023-04-10T04:46:23.597Z,7.85
2023-04-10T04:47:25.339Z,7.92
2023-04-10T04:48:26.999Z,7.92
2023-04-10T04:49:28.573Z,7.91
2023-04-10T04:50:30.300Z,7.93
2023-04-10T04:51:31.850Z,7.95
2023-04-10T04:52:35.371Z,7.97
2023-04-10T04:53:37.025Z,7.96
2023-04-10T04:54:38.560Z,7.97
2023-04-10T04:55:40.970Z,7.98
2023-04-10T04:56:42.520Z,8.01
2023-04-10T04:57:44.054Z,8.05
2023-04-10T04:58:45.692Z,8.02
2023-04-10T04:59:47.248Z,8.05
2023-04-10T05:00:48.789Z,8.08
2023-04-10T05:01:50.452Z,8.13
2023-04-10T05:02:53.389Z,8.18
2023-04-10T05:03:56.162Z,8.10
2023-04-10T05:04:58.249Z,8.14
2023-04-10T05:05:59.877Z,8.27
2023-04-10T05:07:01.585Z,8.33
2023-04-10T05:08:03.269Z,8.36
2023-04-10T05:09:04.856Z,8.24
2023-04-10T05:10:07.012Z,8.12
2023-04-10T05:11:11.004Z,8.10
2023-04-10T05:12:12.724Z,8.12
2023-04-10T05:13:15.763Z,8.13
2023-04-10T05:14:17.357Z,8.16
2023-04-10T05:15:18.986Z,8.19
2023-04-10T05:16:20.636Z,8.18
2023-04-10T05:17:22.226Z,8.20
2023-04-10T05:18:23.982Z,8.21
2023-04-10T05:19:25.713Z,8.24
2023-04-10T05:20:27.340Z,8.25
2023-04-10T05:21:28.917Z,8.32
2023-04-10T05:22:31.139Z,8.36
2023-04-10T05:23:32.669Z,8.35
2023-04-10T05:24:34.410Z,8.34
2023-04-10T05:25:36.403Z,8.32
2023-04-10T05:26:38.114Z,8.28
2023-04-10T05:27:39.742Z,8.29
2023-04-10T05:28:41.292Z,8.27
2023-04-10T05:29:42.816Z,8.23
2023-04-10T05:30:44.930Z,8.23
2023-04-10T05:31:46.749Z,8.30
2023-04-10T05:32:48.372Z,8.31
2023-04-10T05:33:49.948Z,8.31
2023-04-10T05:34:51.550Z,8.30
2023-04-10T05:35:53.583Z,8.34
2023-04-10T05:36:57.509Z,8.40
2023-04-10T05:38:00.855Z,8.41
2023-04-10T05:39:02.458Z,8.41
2023-04-10T05:40:05.041Z,8.44
2023-04-10T05:41:06.666Z,8.49
2023-04-10T05:42:08.266Z,8.52
2023-04-10T05:43:09.838Z,8.64
2023-04-10T05:44:11.432Z,8.71
2023-04-10T05:45:14.876Z,8.75
2023-04-10T05:46:16.535Z,8.77
2023-04-10T05:47:18.179Z,8.77
2023-04-10T05:48:19.735Z,8.80
2023-04-10T05:49:21.377Z,8.84
2023-04-10T05:50:23.181Z,8.90
2023-04-10T05:51:24.799Z,8.83
2023-04-10T05:52:26.383Z,8.76
2023-04-10T05:53:33.637Z,8.81
2023-04-10T05:54:36.255Z,8.85
2023-04-10T05:55:38.473Z,8.89
2023-04-10T05:56:40.051Z,8.93
2023-04-10T05:57:41.564Z,8.94
2023-04-10T05:58:43.127Z,8.98
2023-04-10T05:59:44.652Z,9.05
2023-04-10T06:00:46.741Z,9.14
2023-04-10T06:01:48.326Z,9.23
2023-04-10T06:02:49.986Z,9.29
2023-04-10T06:04:22.245Z,9.38
2023-04-10T06:05:23.958Z,9.40
2023-04-10T06:06:26.352Z,9.45
2023-04-10T06:07:28.778Z,9.45
2023-04-10T06:08:30.760Z,9.50
2023-04-10T06:09:32.398Z,9.58
2023-04-10T06:10:33.980Z,9.59
2023-04-10T06:11:35.584Z,9.59
2023-04-10T06:12:37.203Z,9.58
2023-04-10T06:13:38.852Z,9.55
2023-04-10T06:14:40.519Z,9.60
2023-04-10T06:15:42.170Z,9.68
2023-04-10T06:16:43.813Z,9.75
2023-04-10T06:17:45.358Z,9.80
2023-04-10T06:18:47.813Z,9.85
2023-04-10T06:19:49.456Z,9.92
2023-04-10T06:20:51.058Z,10.04
2023-04-10T06:21:54.510Z,10.13
2023-04-10T06:22:56.973Z,10.20
2023-04-10T06:23:58.548Z,10.29
2023-04-10T06:25:00.379Z,10.29
2023-04-10T06:26:03.468Z,10.31
2023-04-10T06:27:05.038Z,10.37
2023-04-10T06:28:06.637Z,10.43
2023-04-10T06:29:08.289Z,10.50
2023-04-10T06:30:10.489Z,10.57
2023-04-10T06:31:12.564Z,10.69
2023-04-10T06:32:14.226Z,10.80
2023-04-10T06:33:16.374Z,10.93
2023-04-10T06:34:18.183Z,11.00
2023-04-10T06:35:19.780Z,11.03
2023-04-10T06:36:21.696Z,11.07
2023-04-10T06:37:33.197Z,11.13
2023-04-10T06:38:37.741Z,10.95
2023-04-10T06:39:39.440Z,10.53
2023-04-10T06:40:41.632Z,10.20
2023-04-10T06:41:43.188Z,9.97
2023-04-10T06:42:44.771Z,9.85
2023-04-10T06:43:46.363Z,9.93
2023-04-10T06:44:47.881Z,10.14
2023-04-10T06:45:49.458Z,10.35
2023-04-10T06:46:51.005Z,10.51
2023-04-10T06:47:52.826Z,10.66
2023-04-10T06:48:54.592Z,10.80
2023-04-10T06:49:56.242Z,10.87
2023-04-10T06:51:00.492Z,10.90
2023-04-10T06:52:02.068Z,11.06
2023-04-10T06:53:03.594Z,11.22
2023-04-10T06:54:05.508Z,11.32
2023-04-10T06:55:07.671Z,11.39
2023-04-10T06:56:09.556Z,11.39
2023-04-10T06:57:11.141Z,11.44
2023-04-10T06:58:12.735Z,11.49
2023-04-10T06:59:14.300Z,11.48
2023-04-10T07:00:16.275Z,11.45
2023-04-10T07:01:17.968Z,11.46
2023-04-10T07:02:19.684Z,11.38
2023-04-10T07:03:21.469Z,11.22
2023-04-10T07:04:22.998Z,11.14
2023-04-10T07:05:24.608Z,11.13
2023-04-10T07:06:27.077Z,10.80
2023-04-10T07:07:29.282Z,10.44
2023-04-10T07:08:30.852Z,10.31
2023-04-10T07:09:32.388Z,10.48
2023-04-10T07:10:33.903Z,10.72
2023-04-10T07:11:35.514Z,10.87
2023-04-10T07:12:37.016Z,11.04
2023-04-10T07:13:40.203Z,11.09
2023-04-10T07:14:42.343Z,11.21
2023-04-10T07:15:43.936Z,11.35
2023-04-10T07:16:45.596Z,11.39
2023-04-10T07:17:48.376Z,11.27
2023-04-10T07:18:49.934Z,11.29
2023-04-10T07:19:51.480Z,11.38
2023-04-10T07:20:54.051Z,11.48
2023-04-10T07:21:55.690Z,11.44
2023-04-10T07:22:57.221Z,11.44
2023-04-10T07:23:58.729Z,11.32
2023-04-10T07:25:00.538Z,11.27
2023-04-10T07:26:02.098Z,11.01
2023-04-10T07:27:05.900Z,11.03
2023-04-10T07:28:07.479Z,11.08
2023-04-10T07:29:09.434Z,11.20
2023-04-10T07:30:13.561Z,11.33
2023-04-10T07:31:15.688Z,11.48
2023-04-10T07:32:17.868Z,11.59
2023-04-10T07:33:19.713Z,11.67
2023-04-10T07:34:21.449Z,11.86
2023-04-10T07:35:23.041Z,11.99
2023-04-10T07:36:24.631Z,11.88
2023-04-10T07:37:26.531Z,11.99
2023-04-10T07:38:28.202Z,12.17
2023-04-10T07:39:29.777Z,12.37
2023-04-10T07:40:31.348Z,12.52
2023-04-10T07:41:33.018Z,12.71
2023-04-10T07:42:34.600Z,12.61
2023-04-10T07:43:36.401Z,12.59
2023-04-10T07:44:37.991Z,12.65
2023-04-10T07:45:39.560Z,12.85
2023-04-10T07:46:41.774Z,13.04
2023-04-10T07:47:43.360Z,13.16
2023-04-10T07:48:44.902Z,13.26
2023-04-10T07:49:46.446Z,13.38
2023-04-10T07:50:48.210Z,13.31
2023-04-10T07:51:49.729Z,13.26
2023-04-10T07:52:51.331Z,13.36
2023-04-10T07:53:53.049Z,13.07
2023-04-10T07:54:54.663Z,12.86
2023-04-10T07:55:56.513Z,12.87
2023-04-10T07:56:58.029Z,12.74
2023-04-10T07:58:00.246Z,12.83
2023-04-10T07:59:02.905Z,12.97
2023-04-10T08:00:04.911Z,13.12
2023-04-10T08:01:06.972Z,12.89
2023-04-10T08:02:08.618Z,12.69
2023-04-10T08:03:11.759Z,12.85
2023-04-10T08:04:13.628Z,12.94
2023-04-10T08:05:15.746Z,13.00
2023-04-10T08:06:17.415Z,12.91
2023-04-10T08:07:22.116Z,12.63
2023-04-10T08:08:23.680Z,12.41
2023-04-10T08:09:25.394Z,12.33
2023-04-10T08:10:26.905Z,12.43
2023-04-10T08:11:35.201Z,12.52
2023-04-10T08:12:38.189Z,12.54
2023-04-10T08:13:39.739Z,12.68
2023-04-10T08:14:41.404Z,12.65
2023-04-10T08:15:43.050Z,12.43
2023-04-10T08:16:44.652Z,12.52
2023-04-10T08:17:46.325Z,12.71
2023-04-10T08:18:47.920Z,12.89
2023-04-10T08:19:49.474Z,12.97
2023-04-10T08:20:51.005Z,12.93
2023-04-10T08:21:52.560Z,12.82
2023-04-10T08:22:55.261Z,12.95
2023-04-10T08:24:00.403Z,13.02
2023-04-10T08:25:01.941Z,12.99
2023-04-10T08:26:03.655Z,13.08
2023-04-10T08:27:05.252Z,13.33
2023-04-10T08:28:06.890Z,13.53
2023-04-10T08:29:08.511Z,13.71
2023-04-10T08:30:10.522Z,13.83
2023-04-10T08:31:12.119Z,13.93
2023-04-10T08:32:13.746Z,14.00
2023-04-10T08:33:15.592Z,14.02
2023-04-10T08:34:17.197Z,14.07
2023-04-10T08:35:18.888Z,14.15
2023-04-10T08:36:20.733Z,14.33
2023-04-10T08:37:22.649Z,14.48
2023-04-10T08:38:27.494Z,14.50
2023-04-10T08:39:29.056Z,14.58
2023-04-10T08:40:30.664Z,14.66
2023-04-10T08:41:32.271Z,14.64
2023-04-10T08:42:34.623Z,14.69
2023-04-10T08:43:37.288Z,14.51
2023-04-10T08:44:39.883Z,14.32
2023-04-10T08:45:41.765Z,14.30
2023-04-10T08:46:45.289Z,14.37
2023-04-10T08:47:50.126Z,14.42
2023-04-10T08:49:17.277Z,14.54
2023-04-10T08:50:20.279Z,14.61
2023-04-10T08:51:26.691Z,14.73
2023-04-10T08:52:31.560Z,14.83
2023-04-10T08:53:36.940Z,14.84
2023-04-10T08:54:41.527Z,14.85
2023-04-10T08:55:44.447Z,15.01
2023-04-10T08:56:51.217Z,15.10
2023-04-10T08:58:00.431Z,15.18
2023-04-10T08:59:03.652Z,15.15
2023-04-10T09:00:19.846Z,14.82
2023-04-10T09:01:21.774Z,14.64
2023-04-10T09:02:24.933Z,14.55
2023-04-10T09:03:27.794Z,14.44
2023-04-10T09:04:29.715Z,14.46
2023-04-10T09:05:31.613Z,14.43
2023-04-10T09:06:33.183Z,14.29
2023-04-10T09:07:34.702Z,14.25
2023-04-10T09:08:36.459Z,14.21
2023-04-10T09:09:38.038Z,14.24
2023-04-10T09:10:39.647Z,14.16
2023-04-10T09:11:56.513Z,14.14
2023-04-10T09:12:58.068Z,14.13
2023-04-10T09:13:59.575Z,14.12
2023-04-10T09:15:01.047Z,14.08
2023-04-10T09:16:02.956Z,14.00
2023-04-10T09:17:21.636Z,14.08
2023-04-10T09:18:40.260Z,13.99
2023-04-10T09:19:42.413Z,13.97
2023-04-10T09:20:44.046Z,14.01
2023-04-10T09:21:50.770Z,14.15
2023-04-10T09:22:52.931Z,14.25
2023-04-10T09:24:01.284Z,14.31
2023-04-10T09:25:04.254Z,14.31
2023-04-10T09:26:29.328Z,14.42
2023-04-10T09:27:35.996Z,14.51
2023-04-10T09:28:56.584Z,14.57
2023-04-10T09:29:58.730Z,14.54
2023-04-10T09:31:00.340Z,14.59
2023-04-10T09:32:01.996Z,14.34
2023-04-10T09:33:20.746Z,14.34
2023-04-10T09:34:23.382Z,14.17
2023-04-10T09:35:36.836Z,14.03
2023-04-10T09:36:38.638Z,14.00
2023-04-10T09:37:42.363Z,14.07
2023-04-10T09:38:51.576Z,14.16
2023-04-10T09:39:53.280Z,14.24
2023-04-10T09:41:07.051Z,14.26
2023-04-10T09:42:09.668Z,14.25
2023-04-10T09:43:19.202Z,14.32
2023-04-10T09:44:41.510Z,14.30
2023-04-10T09:45:51.668Z,14.30
2023-04-10T09:46:54.039Z,14.39
2023-04-10T09:48:04.166Z,14.41
2023-04-10T09:49:07.437Z,14.28
2023-04-10T09:50:09.079Z,14.16
2023-04-10T09:51:29.759Z,14.08
2023-04-10T09:52:34.685Z,14.25
2023-04-10T09:53:49.682Z,14.29
2023-04-10T09:54:52.210Z,14.31
2023-04-10T09:55:55.075Z,14.39
2023-04-10T09:56:57.604Z,14.39
2023-04-10T09:58:00.347Z,14.47
2023-04-10T09:59:04.685Z,14.57
2023-04-10T10:00:09.568Z,14.71
2023-04-10T10:01:12.731Z,14.86
2023-04-10T10:02:16.449Z,14.90
2023-04-10T10:03:21.155Z,14.89
2023-04-10T10:04:23.702Z,14.92
2023-04-10T10:05:30.505Z,14.80
2023-04-10T10:06:33.213Z,14.68
2023-04-10T10:07:35.879Z,14.66
2023-04-10T10:08:37.631Z,14.73
2023-04-10T10:09:39.675Z,14.73
2023-04-10T10:11:03.356Z,14.65
2023-04-10T10:12:06.873Z,14.64
2023-04-10T10:13:10.413Z,14.75
2023-04-10T10:14:17.597Z,14.84
2023-04-10T10:15:46.840Z,14.99
2023-04-10T10:16:57.123Z,15.02
2023-04-10T10:18:17.912Z,15.18
2023-04-10T10:19:24.760Z,15.22
2023-04-10T10:20:27.512Z,15.17
2023-04-10T10:21:30.743Z,15.05
2023-04-10T10:22:32.783Z,14.96
2023-04-10T10:23:35.048Z,14.99
2023-04-10T10:24:40.112Z,14.99
2023-04-10T10:25:42.786Z,15.04
2023-04-10T10:26:45.349Z,15.11
2023-04-10T10:27:49.645Z,15.18
2023-04-10T10:28:55.154Z,15.14
2023-04-10T10:30:00.950Z,15.01
2023-04-10T10:31:04.856Z,14.97
2023-04-10T10:32:08.360Z,14.97
2023-04-10T10:33:11.086Z,14.93
2023-04-10T10:34:13.562Z,14.84
2023-04-10T10:35:17.122Z,14.80
2023-04-10T10:36:20.458Z,14.70
2023-04-10T10:37:22.078Z,14.75
2023-04-10T10:38:23.764Z,14.84
2023-04-10T10:39:34.272Z,14.88
2023-04-10T10:40:49.260Z,14.96
2023-04-10T10:42:15.651Z,15.00
2023-04-10T10:43:35.499Z,15.01
2023-04-10T10:44:53.862Z,14.98
2023-04-10T10:46:04.787Z,15.05
2023-04-10T10:47:06.348Z,15.08
2023-04-10T10:48:08.167Z,15.09
2023-04-10T10:49:09.797Z,15.04
2023-04-10T10:50:11.432Z,14.88
2023-04-10T10:51:13.044Z,14.79
2023-04-10T10:52:14.661Z,14.67
2023-04-10T10:53:37.137Z,14.69
2023-04-10T10:54:47.202Z,14.67
2023-04-10T10:55:55.250Z,14.70
2023-04-10T10:56:56.853Z,14.73
2023-04-10T10:58:03.656Z,14.70
2023-04-10T10:59:05.357Z,14.72
2023-04-10T11:00:07.646Z,14.81
2023-04-10T11:01:10.558Z,14.82
2023-04-10T11:02:17.669Z,14.91
2023-04-10T11:03:19.484Z,14.98
2023-04-10T11:04:51.330Z,14.99
2023-04-10T11:05:58.718Z,14.97
2023-04-10T11:07:00.311Z,14.91
2023-04-10T11:08:02.034Z,14.87
2023-04-10T11:09:03.622Z,14.84
2023-04-10T11:10:05.631Z,15.01
2023-04-10T11:11:08.076Z,15.15
2023-04-10T11:12:09.617Z,15.20
2023-04-10T11:13:18.426Z,15.19
2023-04-10T11:14:20.367Z,15.22
2023-04-10T11:15:25.936Z,15.28
2023-04-10T11:16:31.460Z,15.36
2023-04-10T11:17:54.361Z,15.38
2023-04-10T11:19:14.246Z,15.41
2023-04-10T11:20:18.474Z,15.44
2023-04-10T11:21:22.417Z,15.42
2023-04-10T11:22:23.940Z,15.42
2023-04-10T11:23:25.497Z,15.43
2023-04-10T11:24:27.116Z,15.38
2023-04-10T11:25:51.968Z,15.36
2023-04-10T11:26:53.565Z,15.33
2023-04-10T11:27:55.167Z,15.28
2023-04-10T11:28:56.954Z,15.30
2023-04-10T11:29:59.412Z,15.29
2023-04-10T11:31:19.707Z,15.34
2023-04-10T11:32:21.457Z,15.34
2023-04-10T11:33:23.065Z,15.23
2023-04-10T11:34:24.851Z,15.17
2023-04-10T11:35:28.370Z,15.08
2023-04-10T11:36:31.197Z,15.02
2023-04-10T11:37:32.774Z,14.99
2023-04-10T11:38:34.621Z,14.91
2023-04-10T11:39:36.583Z,14.80
2023-04-10T11:40:54.469Z,14.63
2023-04-10T11:41:59.300Z,14.62
2023-04-10T11:43:14.952Z,14.77
2023-04-10T11:44:31.670Z,14.77
2023-04-10T11:45:33.245Z,14.89
2023-04-10T11:46:39.750Z,15.01
2023-04-10T11:47:41.653Z,15.13
2023-04-10T11:48:43.232Z,15.29
2023-04-10T11:49:55.746Z,15.31
2023-04-10T11:50:57.755Z,15.27
2023-04-10T11:51:59.278Z,15.21
2023-04-10T11:53:00.844Z,15.22
2023-04-10T11:54:20.312Z,15.15
2023-04-10T11:55:39.062Z,15.14
2023-04-10T11:56:42.501Z,15.11
2023-04-10T11:57:45.469Z,15.10
2023-04-10T11:58:49.958Z,15.14
2023-04-10T11:59:51.849Z,15.19
2023-04-10T12:01:01.291Z,15.19
2023-04-10T12:02:15.931Z,15.28
2023-04-10T12:03:17.875Z,15.29
2023-04-10T12:04:21.521Z,15.34
2023-04-10T12:05:23.196Z,15.35
2023-04-10T12:06:24.931Z,15.30
2023-04-10T12:07:30.298Z,15.20
2023-04-10T12:08:41.668Z,15.22
2023-04-10T12:09:43.565Z,15.16
2023-04-10T12:10:47.006Z,15.13
2023-04-10T12:12:04.168Z,15.16
2023-04-10T12:13:06.658Z,15.15
2023-04-10T12:14:08.259Z,15.09
2023-04-10T12:15:28.965Z,15.02
2023-04-10T12:16:33.087Z,14.85
2023-04-10T12:17:34.712Z,14.89
2023-04-10T12:18:37.379Z,15.00
2023-04-10T12:19:39.734Z,14.87
2023-04-10T12:20:41.628Z,14.80
2023-04-10T12:21:44.053Z,14.97
2023-04-10T12:22:46.896Z,15.07
2023-04-10T12:23:48.487Z,15.10
2023-04-10T12:24:51.842Z,15.17
2023-04-10T12:26:06.724Z,15.12
2023-04-10T12:27:29.421Z,15.11
2023-04-10T12:28:30.995Z,15.23
2023-04-10T12:29:32.672Z,15.32
2023-04-10T12:30:34.257Z,15.39
2023-04-10T12:31:37.237Z,15.37
2023-04-10T12:32:39.719Z,15.46
2023-04-10T12:33:47.387Z,15.38
2023-04-10T12:34:57.891Z,15.35
2023-04-10T12:36:00.024Z,15.41
2023-04-10T12:37:01.652Z,15.34
2023-04-10T12:38:03.420Z,15.38
2023-04-10T12:39:05.696Z,15.42
2023-04-10T12:40:08.222Z,15.45
2023-04-10T12:41:11.403Z,15.48
2023-04-10T12:42:22.606Z,15.51
2023-04-10T12:43:44.793Z,15.55
2023-04-10T12:44:56.170Z,15.57
2023-04-10T12:45:58.025Z,15.57
2023-04-10T12:47:02.492Z,15.65
2023-04-10T12:48:04.207Z,15.71
2023-04-10T12:49:18.859Z,15.75
2023-04-10T12:50:24.304Z,15.65
2023-04-10T12:51:45.830Z,15.53
2023-04-10T12:53:03.470Z,15.49
2023-04-10T12:54:05.007Z,15.52
2023-04-10T12:55:15.667Z,15.48
2023-04-10T12:56:18.310Z,15.48
2023-04-10T12:57:28.890Z,15.38
2023-04-10T12:58:31.689Z,15.30
2023-04-10T12:59:33.687Z,15.20
2023-04-10T13:00:35.645Z,15.14
2023-04-10T13:01:40.590Z,15.14
2023-04-10T13:02:42.871Z,15.19
2023-04-10T13:03:46.703Z,15.16
2023-04-10T13:04:48.405Z,15.11
2023-04-10T13:05:52.070Z,15.20
2023-04-10T13:06:53.749Z,15.27
2023-04-10T13:07:55.294Z,15.26
2023-04-10T13:08:57.173Z,15.30
2023-04-10T13:09:59.756Z,15.37
2023-04-10T13:11:03.539Z,15.43
2023-04-10T13:12:06.878Z,15.44
2023-04-10T13:13:08.399Z,15.43
2023-04-10T13:14:11.115Z,15.43
2023-04-10T13:15:12.626Z,15.41
2023-04-10T13:16:14.217Z,15.35
2023-04-10T13:17:16.155Z,15.35
2023-04-10T13:18:17.878Z,15.32
2023-04-10T13:19:19.396Z,15.33
2023-04-10T13:20:22.330Z,15.36
2023-04-10T13:21:26.957Z,15.32
2023-04-10T13:22:28.510Z,15.35
2023-04-10T13:23:30.298Z,15.43
2023-04-10T13:24:31.811Z,15.44
2023-04-10T13:25:36.438Z,15.48
2023-04-10T13:26:37.972Z,15.57
2023-04-10T13:27:39.493Z,15.63
2023-04-10T13:28:41.008Z,15.59
2023-04-10T13:29:43.325Z,15.56
2023-04-10T13:30:45.296Z,15.23
2023-04-10T13:31:46.917Z,15.04
2023-04-10T13:32:48.636Z,14.91
2023-04-10T13:33:50.345Z,14.92
2023-04-10T13:34:52.384Z,14.87
2023-04-10T13:35:53.988Z,14.76
2023-04-10T13:36:55.710Z,14.68
2023-04-10T13:37:57.277Z,14.63
2023-04-10T13:38:58.916Z,14.68
2023-04-10T13:40:00.536Z,14.75
2023-04-10T13:41:02.112Z,14.79
2023-04-10T13:42:03.714Z,14.81
2023-04-10T13:43:06.456Z,14.77
2023-04-10T13:44:08.154Z,14.79
2023-04-10T13:45:10.032Z,14.84
2023-04-10T13:46:11.582Z,14.78
2023-04-10T13:47:13.186Z,14.69
2023-04-10T13:48:17.643Z,14.67
2023-04-10T13:49:22.168Z,14.78
2023-04-10T13:50:23.911Z,14.86
2023-04-10T13:51:25.636Z,14.72
2023-04-10T13:52:27.150Z,14.65
2023-04-10T13:53:28.686Z,14.50
2023-04-10T13:54:30.364Z,14.45